sensor_id;sensor_type;location;lat;lon;timestamp;pressure;altitude;pressure_sealevel;temperature;humidity
7524;BME280;3803;51.666;7.630;2023-01-13T00:00:00;99839.94;;;13.01;67.02
7524;BME280;3803;51.666;7.630;2023-01-13T00:00:21;99826.78;;;12.92;67.01
7524;BME280;3803;51.666;7.630;2023-01-13T00:00:42;99839.91;;;12.95;67.15
7524;BME280;3803;51.666;7.630;2023-01-13T00:01:09;99865.28;;;13.00;66.87
7524;BME280;3803;51.666;7.630;2023-01-13T00:01:30;99855.66;;;12.99;66.75
7524;BME280;3803;51.666;7.630;2023-01-13T00:01:51;99849.53;;;12.97;66.88
7524;BME280;3803;51.666;7.630;2023-01-13T00:02:11;99848.66;;;12.95;66.61
7524;BME280;3803;51.666;7.630;2023-01-13T00:02:32;99836.41;;;12.89;66.75
7524;BME280;3803;51.666;7.630;2023-01-13T00:02:53;99825.91;;;12.83;67.00
7524;BME280;3803;51.666;7.630;2023-01-13T00:03:13;99839.84;;;12.81;66.90
7524;BME280;3803;51.666;7.630;2023-01-13T00:03:35;99825.00;;;12.77;67.09
7524;BME280;3803;51.666;7.630;2023-01-13T00:03:56;99846.81;;;12.77;67.02
7524;BME280;3803;51.666;7.630;2023-01-13T00:04:17;99838.06;;;12.69;67.03
7524;BME280;3803;51.666;7.630;2023-01-13T00:04:37;99836.31;;;12.68;66.92
7524;BME280;3803;51.666;7.630;2023-01-13T00:04:58;99835.44;;;12.70;66.79
7524;BME280;3803;51.666;7.630;2023-01-13T00:05:18;99837.19;;;12.68;67.24
7524;BME280;3803;51.666;7.630;2023-01-13T00:05:39;99846.75;;;12.61;67.27
7524;BME280;3803;51.666;7.630;2023-01-13T00:06:00;99826.72;;;12.70;66.69
7524;BME280;3803;51.666;7.630;2023-01-13T00:06:22;99838.06;;;12.70;66.93
7524;BME280;3803;51.666;7.630;2023-01-13T00:06:45;99826.66;;;12.59;66.92
7524;BME280;3803;51.666;7.630;2023-01-13T00:07:06;99823.19;;;12.61;66.80
7524;BME280;3803;51.666;7.630;2023-01-13T00:07:26;99840.63;;;12.59;66.74
7524;BME280;3803;51.666;7.630;2023-01-13T00:07:47;99824.03;;;12.51;66.90
7524;BME280;3803;51.666;7.630;2023-01-13T00:08:08;99822.25;;;12.47;67.05
7524;BME280;3803;51.666;7.630;2023-01-13T00:08:48;99829.22;;;12.45;67.30
7524;BME280;3803;51.666;7.630;2023-01-13T00:09:10;99829.22;;;12.42;67.09
7524;BME280;3803;51.666;7.630;2023-01-13T00:09:30;99837.94;;;12.41;67.10
7524;BME280;3803;51.666;7.630;2023-01-13T00:09:51;99846.66;;;12.40;67.33
7524;BME280;3803;51.666;7.630;2023-01-13T00:10:12;99823.94;;;12.32;67.44
7524;BME280;3803;51.666;7.630;2023-01-13T00:10:33;99822.16;;;12.31;67.12
7524;BME280;3803;51.666;7.630;2023-01-13T00:10:53;99841.38;;;12.33;67.28
7524;BME280;3803;51.666;7.630;2023-01-13T00:11:14;99834.38;;;12.29;67.39
7524;BME280;3803;51.666;7.630;2023-01-13T00:11:35;99820.41;;;12.30;67.54
7524;BME280;3803;51.666;7.630;2023-01-13T00:11:55;99828.31;;;12.37;67.27
7524;BME280;3803;51.666;7.630;2023-01-13T00:12:16;99837.94;;;12.41;67.31
7524;BME280;3803;51.666;7.630;2023-01-13T00:12:40;99829.19;;;12.40;67.05
7524;BME280;3803;51.666;7.630;2023-01-13T00:13:03;99809.09;;;12.33;67.18
7524;BME280;3803;51.666;7.630;2023-01-13T00:13:24;99837.91;;;12.34;67.01
7524;BME280;3803;51.666;7.630;2023-01-13T00:13:47;99822.16;;;12.31;67.16
7524;BME280;3803;51.666;7.630;2023-01-13T00:14:07;99814.28;;;12.20;67.23
7524;BME280;3803;51.666;7.630;2023-01-13T00:14:28;99810.78;;;12.25;67.05
7524;BME280;3803;51.666;7.630;2023-01-13T00:14:49;99801.19;;;12.22;67.18
7524;BME280;3803;51.666;7.630;2023-01-13T00:15:10;99811.66;;;12.19;67.33
7524;BME280;3803;51.666;7.630;2023-01-13T00:15:32;99808.16;;;12.20;67.24
7524;BME280;3803;51.666;7.630;2023-01-13T00:16:01;99796.81;;;12.16;67.46
7524;BME280;3803;51.666;7.630;2023-01-13T00:16:22;99797.66;;;12.11;67.33
7524;BME280;3803;51.666;7.630;2023-01-13T00:16:42;99823.84;;;12.20;67.17
7524;BME280;3803;51.666;7.630;2023-01-13T00:17:03;99812.50;;;12.16;67.40
7524;BME280;3803;51.666;7.630;2023-01-13T00:17:24;99803.75;;;12.10;67.66
7524;BME280;3803;51.666;7.630;2023-01-13T00:17:44;99806.38;;;12.10;67.29
7524;BME280;3803;51.666;7.630;2023-01-13T00:18:05;99823.81;;;12.14;67.62
7524;BME280;3803;51.666;7.630;2023-01-13T00:18:26;99811.63;;;12.16;67.22
7524;BME280;3803;51.666;7.630;2023-01-13T00:18:47;99795.91;;;12.10;67.19
7524;BME280;3803;51.666;7.630;2023-01-13T00:19:08;99813.38;;;12.17;67.10
7524;BME280;3803;51.666;7.630;2023-01-13T00:19:28;99813.31;;;12.07;67.15
7524;BME280;3803;51.666;7.630;2023-01-13T00:19:49;99804.53;;;11.96;67.58
7524;BME280;3803;51.666;7.630;2023-01-13T00:20:10;99809.81;;;12.02;67.33
7524;BME280;3803;51.666;7.630;2023-01-13T00:20:31;99804.56;;;12.05;67.51
7524;BME280;3803;51.666;7.630;2023-01-13T00:21:02;99821.13;;;12.01;67.51
7524;BME280;3803;51.666;7.630;2023-01-13T00:21:24;99808.13;;;12.12;67.27
7524;BME280;3803;51.666;7.630;2023-01-13T00:21:44;99805.50;;;12.12;67.20
7524;BME280;3803;51.666;7.630;2023-01-13T00:22:05;99805.50;;;12.11;67.33
7524;BME280;3803;51.666;7.630;2023-01-13T00:22:26;99822.06;;;12.10;67.21
7524;BME280;3803;51.666;7.630;2023-01-13T00:22:46;99810.63;;;11.95;67.34
7524;BME280;3803;51.666;7.630;2023-01-13T00:23:07;99808.03;;;12.00;67.06
7524;BME280;3803;51.666;7.630;2023-01-13T00:23:29;99801.00;;;11.92;67.43
7524;BME280;3803;51.666;7.630;2023-01-13T00:23:52;99805.41;;;11.95;67.28
7524;BME280;3803;51.666;7.630;2023-01-13T00:24:13;99801.94;;;11.98;67.59
7524;BME280;3803;51.666;7.630;2023-01-13T00:24:34;99812.38;;;11.96;67.38
7524;BME280;3803;51.666;7.630;2023-01-13T00:24:54;99826.31;;;11.98;67.42
7524;BME280;3803;51.666;7.630;2023-01-13T00:25:17;99807.13;;;11.96;67.22
7524;BME280;3803;51.666;7.630;2023-01-13T00:25:38;99813.28;;;12.01;67.03
7524;BME280;3803;51.666;7.630;2023-01-13T00:26:03;99816.78;;;12.03;67.21
7524;BME280;3803;51.666;7.630;2023-01-13T00:26:27;99822.84;;;12.01;67.23
7524;BME280;3803;51.666;7.630;2023-01-13T00:26:50;99834.22;;;12.06;67.11
7524;BME280;3803;51.666;7.630;2023-01-13T00:27:12;99807.22;;;12.04;67.29
7524;BME280;3803;51.666;7.630;2023-01-13T00:27:32;99824.56;;;11.97;67.29
7524;BME280;3803;51.666;7.630;2023-01-13T00:27:53;99826.41;;;12.11;67.58
7524;BME280;3803;51.666;7.630;2023-01-13T00:28:14;99818.53;;;12.04;67.42
7524;BME280;3803;51.666;7.630;2023-01-13T00:28:34;99824.72;;;12.16;67.51
7524;BME280;3803;51.666;7.630;2023-01-13T00:28:56;99828.19;;;12.13;67.17
7524;BME280;3803;51.666;7.630;2023-01-13T00:29:17;99825.59;;;12.18;67.43
7524;BME280;3803;51.666;7.630;2023-01-13T00:29:38;99842.22;;;12.31;66.95
7524;BME280;3803;51.666;7.630;2023-01-13T00:29:58;99834.38;;;12.29;67.08
7524;BME280;3803;51.666;7.630;2023-01-13T00:30:19;99832.63;;;12.28;66.76
7524;BME280;3803;51.666;7.630;2023-01-13T00:30:40;99828.25;;;12.27;66.80
7524;BME280;3803;51.666;7.630;2023-01-13T00:31:14;99839.63;;;12.36;66.63
7524;BME280;3803;51.666;7.630;2023-01-13T00:31:35;99829.16;;;12.36;66.61
7524;BME280;3803;51.666;7.630;2023-01-13T00:31:56;99821.31;;;12.39;66.40
7524;BME280;3803;51.666;7.630;2023-01-13T00:32:17;99834.44;;;12.45;66.20
7524;BME280;3803;51.666;7.630;2023-01-13T00:32:38;99817.88;;;12.43;65.91
7524;BME280;3803;51.666;7.630;2023-01-13T00:32:58;99832.75;;;12.50;66.13
7524;BME280;3803;51.666;7.630;2023-01-13T00:33:19;99811.78;;;12.41;66.09
7524;BME280;3803;51.666;7.630;2023-01-13T00:33:39;99813.56;;;12.48;65.83
7524;BME280;3803;51.666;7.630;2023-01-13T00:34:12;99823.13;;;12.44;65.88
7524;BME280;3803;51.666;7.630;2023-01-13T00:34:32;99848.41;;;12.47;65.79
7524;BME280;3803;51.666;7.630;2023-01-13T00:34:53;99816.16;;;12.54;65.41
7524;BME280;3803;51.666;7.630;2023-01-13T00:35:14;99820.53;;;12.52;65.37
7524;BME280;3803;51.666;7.630;2023-01-13T00:35:34;99808.31;;;12.54;65.62
7524;BME280;3803;51.666;7.630;2023-01-13T00:35:59;99813.56;;;12.54;65.38
7524;BME280;3803;51.666;7.630;2023-01-13T00:36:20;99807.41;;;12.46;65.61
7524;BME280;3803;51.666;7.630;2023-01-13T00:36:41;99797.81;;;12.42;65.34
7524;BME280;3803;51.666;7.630;2023-01-13T00:37:01;99798.72;;;12.45;65.30
7524;BME280;3803;51.666;7.630;2023-01-13T00:37:22;99776.91;;;12.51;65.23
7524;BME280;3803;51.666;7.630;2023-01-13T00:37:42;99800.44;;;12.46;65.49
7524;BME280;3803;51.666;7.630;2023-01-13T00:38:03;99803.06;;;12.42;65.29
7524;BME280;3803;51.666;7.630;2023-01-13T00:38:24;99804.81;;;12.47;65.19
7524;BME280;3803;51.666;7.630;2023-01-13T00:38:45;99796.97;;;12.49;65.23
7524;BME280;3803;51.666;7.630;2023-01-13T00:39:07;99804.84;;;12.49;65.23
7524;BME280;3803;51.666;7.630;2023-01-13T00:39:27;99789.94;;;12.40;65.27
7524;BME280;3803;51.666;7.630;2023-01-13T00:39:50;99791.72;;;12.47;65.09
7524;BME280;3803;51.666;7.630;2023-01-13T00:40:11;99784.72;;;12.43;64.97
7524;BME280;3803;51.666;7.630;2023-01-13T00:40:31;99792.59;;;12.45;64.96
7524;BME280;3803;51.666;7.630;2023-01-13T00:40:58;99789.13;;;12.47;65.30
7524;BME280;3803;51.666;7.630;2023-01-13T00:41:21;99796.97;;;12.49;65.01
7524;BME280;3803;51.666;7.630;2023-01-13T00:41:42;99797.81;;;12.45;65.37
7524;BME280;3803;51.666;7.630;2023-01-13T00:42:21;99797.81;;;12.43;65.17
7524;BME280;3803;51.666;7.630;2023-01-13T00:43:00;99799.53;;;12.37;65.44
7524;BME280;3803;51.666;7.630;2023-01-13T00:43:40;99801.31;;;12.44;65.26
7524;BME280;3803;51.666;7.630;2023-01-13T00:44:00;99803.06;;;12.45;65.52
7524;BME280;3803;51.666;7.630;2023-01-13T00:44:21;99796.94;;;12.41;65.40
7524;BME280;3803;51.666;7.630;2023-01-13T00:44:42;99811.78;;;12.41;65.51
7524;BME280;3803;51.666;7.630;2023-01-13T00:45:03;99795.19;;;12.40;65.60
7524;BME280;3803;51.666;7.630;2023-01-13T00:45:24;99804.75;;;12.33;65.55
7524;BME280;3803;51.666;7.630;2023-01-13T00:45:45;99807.41;;;12.40;65.55
7524;BME280;3803;51.666;7.630;2023-01-13T00:46:33;99816.13;;;12.40;65.99
7524;BME280;3803;51.666;7.630;2023-01-13T00:46:53;99805.66;;;12.37;65.73
7524;BME280;3803;51.666;7.630;2023-01-13T00:47:16;99807.38;;;12.37;65.96
7524;BME280;3803;51.666;7.630;2023-01-13T00:47:37;99816.13;;;12.43;65.74
7524;BME280;3803;51.666;7.630;2023-01-13T00:47:58;99815.25;;;12.46;65.61
7524;BME280;3803;51.666;7.630;2023-01-13T00:48:19;99816.13;;;12.43;65.85
7524;BME280;3803;51.666;7.630;2023-01-13T00:48:40;99821.38;;;12.45;65.63
7524;BME280;3803;51.666;7.630;2023-01-13T00:49:01;99819.63;;;12.44;65.95
7524;BME280;3803;51.666;7.630;2023-01-13T00:49:22;99815.25;;;12.43;65.60
7524;BME280;3803;51.666;7.630;2023-01-13T00:49:43;99808.28;;;12.45;65.91
7524;BME280;3803;51.666;7.630;2023-01-13T00:50:04;99815.25;;;12.46;65.87
7524;BME280;3803;51.666;7.630;2023-01-13T00:50:25;99818.75;;;12.42;65.94
7524;BME280;3803;51.666;7.630;2023-01-13T00:50:46;99819.63;;;12.44;65.88
7524;BME280;3803;51.666;7.630;2023-01-13T00:51:21;99815.22;;;12.37;65.89
7524;BME280;3803;51.666;7.630;2023-01-13T00:51:41;99817.88;;;12.40;66.18
7524;BME280;3803;51.666;7.630;2023-01-13T00:52:02;99817.00;;;12.44;66.00
7524;BME280;3803;51.666;7.630;2023-01-13T00:52:23;99822.25;;;12.45;66.00
7524;BME280;3803;51.666;7.630;2023-01-13T00:52:43;99819.63;;;12.45;65.98
7524;BME280;3803;51.666;7.630;2023-01-13T00:53:04;99814.38;;;12.44;65.93
7524;BME280;3803;51.666;7.630;2023-01-13T00:53:25;99826.63;;;12.51;65.95
7524;BME280;3803;51.666;7.630;2023-01-13T00:53:49;99821.41;;;12.48;66.08
7524;BME280;3803;51.666;7.630;2023-01-13T00:54:09;99819.63;;;12.45;65.91
7524;BME280;3803;51.666;7.630;2023-01-13T00:54:30;99816.13;;;12.45;65.74
7524;BME280;3803;51.666;7.630;2023-01-13T00:54:51;99823.13;;;12.47;66.06
7524;BME280;3803;51.666;7.630;2023-01-13T00:55:12;99817.00;;;12.47;65.95
7524;BME280;3803;51.666;7.630;2023-01-13T00:55:32;99812.69;;;12.49;65.95
7524;BME280;3803;51.666;7.630;2023-01-13T00:56:21;99817.91;;;12.51;66.07
7524;BME280;3803;51.666;7.630;2023-01-13T00:56:40;99815.28;;;12.51;65.82
7524;BME280;3803;51.666;7.630;2023-01-13T00:57:02;99810.91;;;12.45;65.75
7524;BME280;3803;51.666;7.630;2023-01-13T00:57:23;99815.25;;;12.46;65.97
7524;BME280;3803;51.666;7.630;2023-01-13T00:57:43;99814.44;;;12.53;65.99
7524;BME280;3803;51.666;7.630;2023-01-13T00:58:04;99824.06;;;12.57;65.85
7524;BME280;3803;51.666;7.630;2023-01-13T00:58:25;99810.03;;;12.46;65.93
7524;BME280;3803;51.666;7.630;2023-01-13T00:58:46;99831.00;;;12.55;65.85
7524;BME280;3803;51.666;7.630;2023-01-13T00:59:10;99831.00;;;12.55;66.11
7524;BME280;3803;51.666;7.630;2023-01-13T00:59:31;99818.78;;;12.51;66.35
7524;BME280;3803;51.666;7.630;2023-01-13T00:59:51;99818.78;;;12.48;66.04
7524;BME280;3803;51.666;7.630;2023-01-13T01:00:12;99842.34;;;12.59;66.18
7524;BME280;3803;51.666;7.630;2023-01-13T01:00:34;99816.19;;;12.56;65.94
7524;BME280;3803;51.666;7.630;2023-01-13T01:00:59;99821.44;;;12.57;66.03
7524;BME280;3803;51.666;7.630;2023-01-13T01:01:21;99826.63;;;12.54;66.21
7524;BME280;3803;51.666;7.630;2023-01-13T01:01:42;99824.03;;;12.54;66.17
7524;BME280;3803;51.666;7.630;2023-01-13T01:02:02;99824.06;;;12.57;66.02
7524;BME280;3803;51.666;7.630;2023-01-13T01:02:23;99833.66;;;12.60;66.20
7524;BME280;3803;51.666;7.630;2023-01-13T01:02:43;99813.56;;;12.51;66.46
7524;BME280;3803;51.666;7.630;2023-01-13T01:03:04;99817.03;;;12.53;66.18
7524;BME280;3803;51.666;7.630;2023-01-13T01:03:32;99817.06;;;12.56;66.22
7524;BME280;3803;51.666;7.630;2023-01-13T01:03:53;99820.53;;;12.55;66.49
7524;BME280;3803;51.666;7.630;2023-01-13T01:04:14;99817.06;;;12.59;66.30
7524;BME280;3803;51.666;7.630;2023-01-13T01:04:34;99822.31;;;12.59;66.30
7524;BME280;3803;51.666;7.630;2023-01-13T01:04:55;99814.47;;;12.56;65.96
7524;BME280;3803;51.666;7.630;2023-01-13T01:05:15;99815.28;;;12.52;66.31
7524;BME280;3803;51.666;7.630;2023-01-13T01:05:37;99806.56;;;12.50;66.50
7524;BME280;3803;51.666;7.630;2023-01-13T01:06:11;99813.56;;;12.48;66.42
7524;BME280;3803;51.666;7.630;2023-01-13T01:06:32;99820.50;;;12.51;66.16
7524;BME280;3803;51.666;7.630;2023-01-13T01:06:53;99818.78;;;12.54;66.50
7524;BME280;3803;51.666;7.630;2023-01-13T01:07:13;99822.31;;;12.56;66.70
7524;BME280;3803;51.666;7.630;2023-01-13T01:07:34;99806.56;;;12.53;66.64
7524;BME280;3803;51.666;7.630;2023-01-13T01:07:54;99823.16;;;12.54;66.66
7524;BME280;3803;51.666;7.630;2023-01-13T01:08:15;99814.44;;;12.53;66.73
7524;BME280;3803;51.666;7.630;2023-01-13T01:08:35;99824.00;;;12.50;66.35
7524;BME280;3803;51.666;7.630;2023-01-13T01:08:57;99826.72;;;12.64;66.50
7524;BME280;3803;51.666;7.630;2023-01-13T01:09:18;99817.97;;;12.60;66.61
7524;BME280;3803;51.666;7.630;2023-01-13T01:09:38;99808.34;;;12.57;66.80
7524;BME280;3803;51.666;7.630;2023-01-13T01:09:59;99825.84;;;12.65;66.61
7524;BME280;3803;51.666;7.630;2023-01-13T01:10:19;99804.88;;;12.63;66.42
7524;BME280;3803;51.666;7.630;2023-01-13T01:10:40;99831.06;;;12.68;66.29
7524;BME280;3803;51.666;7.630;2023-01-13T01:11:17;99815.34;;;12.63;66.63
7524;BME280;3803;51.666;7.630;2023-01-13T01:11:42;99803.16;;;12.70;66.52
7524;BME280;3803;51.666;7.630;2023-01-13T01:12:03;99808.38;;;12.70;66.39
7524;BME280;3803;51.666;7.630;2023-01-13T01:12:24;99829.34;;;12.76;66.37
7524;BME280;3803;51.666;7.630;2023-01-13T01:12:45;99826.75;;;12.76;66.29
7524;BME280;3803;51.666;7.630;2023-01-13T01:13:05;99831.97;;;12.79;66.35
7524;BME280;3803;51.666;7.630;2023-01-13T01:13:26;99829.38;;;12.82;66.22
7524;BME280;3803;51.666;7.630;2023-01-13T01:13:47;99830.25;;;12.83;66.17
7524;BME280;3803;51.666;7.630;2023-01-13T01:14:10;99811.91;;;12.78;66.20
7524;BME280;3803;51.666;7.630;2023-01-13T01:14:31;99813.69;;;12.82;65.85
7524;BME280;3803;51.666;7.630;2023-01-13T01:14:51;99819.75;;;12.83;66.15
7524;BME280;3803;51.666;7.630;2023-01-13T01:15:12;99818.06;;;12.89;66.09
7524;BME280;3803;51.666;7.630;2023-01-13T01:15:33;99803.19;;;12.85;66.02
7524;BME280;3803;51.666;7.630;2023-01-13T01:15:54;99818.06;;;12.88;65.83
7524;BME280;3803;51.666;7.630;2023-01-13T01:16:16;99810.19;;;12.86;65.62
7524;BME280;3803;51.666;7.630;2023-01-13T01:16:38;99825.09;;;12.95;65.68
7524;BME280;3803;51.666;7.630;2023-01-13T01:16:59;99818.91;;;12.90;65.87
7524;BME280;3803;51.666;7.630;2023-01-13T01:17:19;99818.97;;;12.95;65.50
7524;BME280;3803;51.666;7.630;2023-01-13T01:17:40;99811.09;;;12.95;65.65
7524;BME280;3803;51.666;7.630;2023-01-13T01:18:00;99829.50;;;13.04;65.54
7524;BME280;3803;51.666;7.630;2023-01-13T01:18:21;99826.84;;;12.96;65.36
7524;BME280;3803;51.666;7.630;2023-01-13T01:18:44;99832.09;;;13.01;65.47
7524;BME280;3803;51.666;7.630;2023-01-13T01:19:06;99826.84;;;13.01;65.34
7524;BME280;3803;51.666;7.630;2023-01-13T01:19:27;99832.97;;;13.06;65.36
7524;BME280;3803;51.666;7.630;2023-01-13T01:19:47;99824.25;;;13.02;65.62
7524;BME280;3803;51.666;7.630;2023-01-13T01:20:09;99820.72;;;13.02;65.52
7524;BME280;3803;51.666;7.630;2023-01-13T01:20:29;99812.00;;;13.03;65.55
7524;BME280;3803;51.666;7.630;2023-01-13T01:20:50;99826.00;;;13.05;65.43
7524;BME280;3803;51.666;7.630;2023-01-13T01:21:11;99826.88;;;13.07;65.53
7524;BME280;3803;51.666;7.630;2023-01-13T01:21:33;99829.47;;;13.10;65.15
7524;BME280;3803;51.666;7.630;2023-01-13T01:21:54;99816.44;;;13.15;64.92
7524;BME280;3803;51.666;7.630;2023-01-13T01:22:14;99830.38;;;13.14;65.00
7524;BME280;3803;51.666;7.630;2023-01-13T01:22:37;99819.91;;;13.17;64.88
7524;BME280;3803;51.666;7.630;2023-01-13T01:22:59;99836.47;;;13.18;64.90
7524;BME280;3803;51.666;7.630;2023-01-13T01:23:20;99829.50;;;13.13;64.85
7524;BME280;3803;51.666;7.630;2023-01-13T01:23:42;99830.38;;;13.20;64.79
7524;BME280;3803;51.666;7.630;2023-01-13T01:24:03;99816.41;;;13.16;64.66
7524;BME280;3803;51.666;7.630;2023-01-13T01:24:24;99840.00;;;13.20;64.88
7524;BME280;3803;51.666;7.630;2023-01-13T01:24:46;99822.53;;;13.15;64.68
7524;BME280;3803;51.666;7.630;2023-01-13T01:25:07;99823.38;;;13.13;64.71
7524;BME280;3803;51.666;7.630;2023-01-13T01:25:27;99822.50;;;13.06;64.63
7524;BME280;3803;51.666;7.630;2023-01-13T01:25:48;99847.88;;;13.20;64.55
7524;BME280;3803;51.666;7.630;2023-01-13T01:26:14;99830.41;;;13.17;64.38
7524;BME280;3803;51.666;7.630;2023-01-13T01:26:35;99819.03;;;13.12;64.23
7524;BME280;3803;51.666;7.630;2023-01-13T01:26:55;99827.75;;;13.12;64.05
7524;BME280;3803;51.666;7.630;2023-01-13T01:27:16;99833.00;;;13.15;64.20
7524;BME280;3803;51.666;7.630;2023-01-13T01:27:38;99836.50;;;13.11;64.09
7524;BME280;3803;51.666;7.630;2023-01-13T01:27:58;99828.63;;;13.14;64.17
7524;BME280;3803;51.666;7.630;2023-01-13T01:28:19;99828.63;;;13.13;64.36
7524;BME280;3803;51.666;7.630;2023-01-13T01:28:40;99827.75;;;13.09;64.00
7524;BME280;3803;51.666;7.630;2023-01-13T01:29:01;99829.50;;;13.04;64.15
7524;BME280;3803;51.666;7.630;2023-01-13T01:29:21;99830.34;;;13.01;64.06
7524;BME280;3803;51.666;7.630;2023-01-13T01:29:47;99823.38;;;13.05;64.17
7524;BME280;3803;51.666;7.630;2023-01-13T01:30:08;99824.22;;;12.98;64.10
7524;BME280;3803;51.666;7.630;2023-01-13T01:30:29;99825.91;;;12.93;64.02
7524;BME280;3803;51.666;7.630;2023-01-13T01:30:50;99820.75;;;12.96;64.14
7524;BME280;3803;51.666;7.630;2023-01-13T01:31:16;99841.69;;;12.99;63.89
7524;BME280;3803;51.666;7.630;2023-01-13T01:31:37;99825.91;;;12.93;63.91
7524;BME280;3803;51.666;7.630;2023-01-13T01:31:58;99834.72;;;12.98;63.73
7524;BME280;3803;51.666;7.630;2023-01-13T01:32:19;99830.31;;;12.98;63.98
7524;BME280;3803;51.666;7.630;2023-01-13T01:32:39;99844.31;;;13.07;64.01
7524;BME280;3803;51.666;7.630;2023-01-13T01:33:00;99827.72;;;13.03;63.75
7524;BME280;3803;51.666;7.630;2023-01-13T01:33:23;99847.81;;;13.10;63.42
7524;BME280;3803;51.666;7.630;2023-01-13T01:33:44;99849.56;;;13.07;63.56
7524;BME280;3803;51.666;7.630;2023-01-13T01:34:08;99830.31;;;12.98;63.32
7524;BME280;3803;51.666;7.630;2023-01-13T01:34:28;99814.63;;;12.97;63.04
7524;BME280;3803;51.666;7.630;2023-01-13T01:34:50;99831.22;;;12.96;63.12
7524;BME280;3803;51.666;7.630;2023-01-13T01:35:10;99827.69;;;12.94;63.12
7524;BME280;3803;51.666;7.630;2023-01-13T01:35:31;99836.41;;;12.93;62.92
7524;BME280;3803;51.666;7.630;2023-01-13T01:35:52;99832.09;;;12.99;62.62
7524;BME280;3803;51.666;7.630;2023-01-13T01:36:16;99824.16;;;12.90;62.87
7524;BME280;3803;51.666;7.630;2023-01-13T01:36:38;99834.63;;;12.87;62.43
7524;BME280;3803;51.666;7.630;2023-01-13T01:36:58;99829.41;;;12.88;62.65
7524;BME280;3803;51.666;7.630;2023-01-13T01:37:19;99825.00;;;12.83;62.83
7524;BME280;3803;51.666;7.630;2023-01-13T01:37:39;99837.31;;;12.98;62.50
7524;BME280;3803;51.666;7.630;2023-01-13T01:38:00;99833.81;;;12.94;62.32
7524;BME280;3803;51.666;7.630;2023-01-13T01:38:21;99825.91;;;12.91;62.64
7524;BME280;3803;51.666;7.630;2023-01-13T01:38:43;99818.06;;;12.85;62.57
7524;BME280;3803;51.666;7.630;2023-01-13T01:39:04;99817.19;;;12.87;62.63
7524;BME280;3803;51.666;7.630;2023-01-13T01:39:26;99819.88;;;12.97;62.30
7524;BME280;3803;51.666;7.630;2023-01-13T01:39:47;99829.44;;;12.95;62.05
7524;BME280;3803;51.666;7.630;2023-01-13T01:40:08;99818.09;;;12.94;62.17
7524;BME280;3803;51.666;7.630;2023-01-13T01:40:29;99832.09;;;13.01;62.28
7524;BME280;3803;51.666;7.630;2023-01-13T01:40:50;99826.84;;;12.96;62.19
7524;BME280;3803;51.666;7.630;2023-01-13T01:41:18;99831.22;;;12.96;62.16
7524;BME280;3803;51.666;7.630;2023-01-13T01:41:39;99820.69;;;12.93;61.87
7524;BME280;3803;51.666;7.630;2023-01-13T01:42:21;99831.22;;;12.99;62.06
7524;BME280;3803;51.666;7.630;2023-01-13T01:43:00;99830.31;;;12.98;61.82
7524;BME280;3803;51.666;7.630;2023-01-13T01:43:52;99831.22;;;12.96;62.26
7524;BME280;3803;51.666;7.630;2023-01-13T01:45:12;99819.84;;;13.03;62.20
7524;BME280;3803;51.666;7.630;2023-01-13T01:45:33;99808.50;;;12.93;61.93
7524;BME280;3803;51.666;7.630;2023-01-13T01:45:54;99813.72;;;12.95;62.20
7524;BME280;3803;51.666;7.630;2023-01-13T01:46:14;99818.97;;;12.96;62.50
7524;BME280;3803;51.666;7.630;2023-01-13T01:46:42;99812.88;;;12.96;62.25
7524;BME280;3803;51.666;7.630;2023-01-13T01:47:03;99818.06;;;12.89;62.33
7524;BME280;3803;51.666;7.630;2023-01-13T01:47:25;99820.69;;;12.89;62.37
7524;BME280;3803;51.666;7.630;2023-01-13T01:47:50;99824.22;;;12.98;62.40
7524;BME280;3803;51.666;7.630;2023-01-13T01:48:12;99833.84;;;13.04;62.41
7524;BME280;3803;51.666;7.630;2023-01-13T01:48:37;99825.06;;;12.92;62.33
7524;BME280;3803;51.666;7.630;2023-01-13T01:49:28;99836.44;;;13.02;62.33
7524;BME280;3803;51.666;7.630;2023-01-13T01:49:50;99817.22;;;12.92;62.34
7524;BME280;3803;51.666;7.630;2023-01-13T01:50:11;99827.69;;;12.94;62.49
7524;BME280;3803;51.666;7.630;2023-01-13T01:50:33;99827.69;;;12.94;62.57
7524;BME280;3803;51.666;7.630;2023-01-13T01:50:54;99824.22;;;12.98;62.34
7524;BME280;3803;51.666;7.630;2023-01-13T01:51:15;99825.91;;;12.91;62.28
7524;BME280;3803;51.666;7.630;2023-01-13T01:51:41;99839.94;;;12.98;62.41
7524;BME280;3803;51.666;7.630;2023-01-13T01:52:05;99825.97;;;12.96;62.28
7524;BME280;3803;51.666;7.630;2023-01-13T01:52:36;99822.47;;;12.95;62.26
7524;BME280;3803;51.666;7.630;2023-01-13T01:53:06;99829.41;;;12.88;62.57
7524;BME280;3803;51.666;7.630;2023-01-13T01:53:30;99824.19;;;12.88;62.51
7524;BME280;3803;51.666;7.630;2023-01-13T01:53:52;99828.53;;;12.88;62.43
7524;BME280;3803;51.666;7.630;2023-01-13T01:54:21;99830.25;;;12.84;62.51
7524;BME280;3803;51.666;7.630;2023-01-13T01:54:50;99825.00;;;12.77;62.61
7524;BME280;3803;51.666;7.630;2023-01-13T01:55:17;99811.91;;;12.75;62.92
7524;BME280;3803;51.666;7.630;2023-01-13T01:55:39;99846.81;;;12.77;62.74
7524;BME280;3803;51.666;7.630;2023-01-13T01:56:00;99829.31;;;12.70;62.83
7524;BME280;3803;51.666;7.630;2023-01-13T01:56:21;99839.81;;;12.76;62.74
7524;BME280;3803;51.666;7.630;2023-01-13T01:56:43;99832.88;;;12.81;62.71
7524;BME280;3803;51.666;7.630;2023-01-13T01:57:06;99820.63;;;12.77;62.48
7524;BME280;3803;51.666;7.630;2023-01-13T01:57:43;99818.03;;;12.79;62.62
7524;BME280;3803;51.666;7.630;2023-01-13T01:58:21;99838.13;;;12.86;62.48
7524;BME280;3803;51.666;7.630;2023-01-13T01:58:46;99841.63;;;12.89;62.13
7524;BME280;3803;51.666;7.630;2023-01-13T01:59:09;99826.75;;;12.82;62.31
7524;BME280;3803;51.666;7.630;2023-01-13T01:59:31;99838.97;;;12.83;62.21
7524;BME280;3803;51.666;7.630;2023-01-13T01:59:53;99831.09;;;12.74;61.96
7524;BME280;3803;51.666;7.630;2023-01-13T02:00:15;99842.50;;;12.88;62.29
7524;BME280;3803;51.666;7.630;2023-01-13T02:00:36;99827.63;;;12.81;61.87
7524;BME280;3803;51.666;7.630;2023-01-13T02:00:57;99826.75;;;12.79;62.20
7524;BME280;3803;51.666;7.630;2023-01-13T02:01:18;99827.63;;;12.84;62.00
7524;BME280;3803;51.666;7.630;2023-01-13T02:01:40;99830.25;;;12.80;62.02
7524;BME280;3803;51.666;7.630;2023-01-13T02:02:02;99885.25;;;12.84;61.97
7524;BME280;3803;51.666;7.630;2023-01-13T02:02:22;99828.50;;;12.79;61.98
7524;BME280;3803;51.666;7.630;2023-01-13T02:02:45;99846.03;;;12.94;61.99
7524;BME280;3803;51.666;7.630;2023-01-13T02:03:07;99839.88;;;12.88;61.79
7524;BME280;3803;51.666;7.630;2023-01-13T02:03:29;99828.53;;;12.93;61.89